sensor_id;sensor_type;location;lat;lon;timestamp;temperature;humidity
17797;DHT22;55596;53.554;9.916;2022-11-15T00:01:15;5.30;99.90
17797;DHT22;55596;53.554;9.916;2022-11-15T00:03:43;5.40;99.90
17797;DHT22;55596;53.554;9.916;2022-11-15T00:06:12;5.30;99.90
17797;DHT22;55596;53.554;9.916;2022-11-15T00:08:39;5.30;99.90
17797;DHT22;55596;53.554;9.916;2022-11-15T00:11:06;5.40;99.90
17797;DHT22;55596;53.554;9.916;2022-11-15T00:13:33;5.60;99.90
17797;DHT22;55596;53.554;9.916;2022-11-15T00:16:00;5.30;99.90
17797;DHT22;55596;53.554;9.916;2022-11-15T00:18:28;5.50;99.90
17797;DHT22;55596;53.554;9.916;2022-11-15T00:20:55;5.70;99.90
17797;DHT22;55596;53.554;9.916;2022-11-15T00:23:24;5.60;99.90
17797;DHT22;55596;53.554;9.916;2022-11-15T00:25:56;6.00;99.90
17797;DHT22;55596;53.554;9.916;2022-11-15T00:28:23;6.00;99.90
17797;DHT22;55596;53.554;9.916;2022-11-15T00:30:50;6.10;99.90
17797;DHT22;55596;53.554;9.916;2022-11-15T00:33:17;5.90;99.90
17797;DHT22;55596;53.554;9.916;2022-11-15T00:35:45;6.00;99.90
17797;DHT22;55596;53.554;9.916;2022-11-15T00:38:11;5.70;99.90
17797;DHT22;55596;53.554;9.916;2022-11-15T00:40:40;5.90;99.90
17797;DHT22;55596;53.554;9.916;2022-11-15T00:43:07;6.00;99.90
17797;DHT22;55596;53.554;9.916;2022-11-15T00:45:34;6.00;99.90
17797;DHT22;55596;53.554;9.916;2022-11-15T00:48:01;6.10;99.90
17797;DHT22;55596;53.554;9.916;2022-11-15T00:50:28;5.80;99.90
17797;DHT22;55596;53.554;9.916;2022-11-15T00:52:55;5.90;99.90
17797;DHT22;55596;53.554;9.916;2022-11-15T00:55:22;5.90;99.90
17797;DHT22;55596;53.554;9.916;2022-11-15T00:57:50;6.10;99.90
17797;DHT22;55596;53.554;9.916;2022-11-15T01:00:17;6.00;99.90
17797;DHT22;55596;53.554;9.916;2022-11-15T01:02:49;5.50;99.90
17797;DHT22;55596;53.554;9.916;2022-11-15T01:05:16;5.90;99.90
17797;DHT22;55596;53.554;9.916;2022-11-15T01:07:43;6.00;99.90
17797;DHT22;55596;53.554;9.916;2022-11-15T01:10:10;5.50;99.90
17797;DHT22;55596;53.554;9.916;2022-11-15T01:12:37;5.70;99.90
17797;DHT22;55596;53.554;9.916;2022-11-15T01:15:06;5.80;99.90
17797;DHT22;55596;53.554;9.916;2022-11-15T01:17:33;5.50;99.90
17797;DHT22;55596;53.554;9.916;2022-11-15T01:20:00;5.40;99.90
17797;DHT22;55596;53.554;9.916;2022-11-15T01:22:28;5.30;99.90
17797;DHT22;55596;53.554;9.916;2022-11-15T01:24:55;5.20;99.90
17797;DHT22;55596;53.554;9.916;2022-11-15T01:27:22;4.80;99.90
17797;DHT22;55596;53.554;9.916;2022-11-15T01:29:49;4.90;99.90
17797;DHT22;55596;53.554;9.916;2022-11-15T01:32:18;4.90;99.90
17797;DHT22;55596;53.554;9.916;2022-11-15T01:34:45;4.90;99.90
17797;DHT22;55596;53.554;9.916;2022-11-15T01:37:12;5.00;99.90
17797;DHT22;55596;53.554;9.916;2022-11-15T01:42:08;4.90;99.90
17797;DHT22;55596;53.554;9.916;2022-11-15T01:44:41;4.70;99.90
17797;DHT22;55596;53.554;9.916;2022-11-15T01:47:12;4.70;99.90
17797;DHT22;55596;53.554;9.916;2022-11-15T01:49:49;4.70;99.90
17797;DHT22;55596;53.554;9.916;2022-11-15T01:52:19;4.70;99.90
17797;DHT22;55596;53.554;9.916;2022-11-15T01:54:49;4.70;99.90
17797;DHT22;55596;53.554;9.916;2022-11-15T01:57:17;4.40;99.90
17797;DHT22;55596;53.554;9.916;2022-11-15T01:59:44;4.60;99.90
17797;DHT22;55596;53.554;9.916;2022-11-15T02:04:43;4.40;99.90
17797;DHT22;55596;53.554;9.916;2022-11-15T02:07:11;4.50;99.90
17797;DHT22;55596;53.554;9.916;2022-11-15T02:09:40;4.40;99.90
17797;DHT22;55596;53.554;9.916;2022-11-15T02:12:08;4.10;99.90
17797;DHT22;55596;53.554;9.916;2022-11-15T02:14:37;4.40;99.90
17797;DHT22;55596;53.554;9.916;2022-11-15T02:17:15;4.40;99.90
17797;DHT22;55596;53.554;9.916;2022-11-15T02:20:08;4.30;99.90
17797;DHT22;55596;53.554;9.916;2022-11-15T02:22:50;4.20;99.90
17797;DHT22;55596;53.554;9.916;2022-11-15T02:25:37;4.40;99.90
17797;DHT22;55596;53.554;9.916;2022-11-15T02:28:25;4.50;99.90
17797;DHT22;55596;53.554;9.916;2022-11-15T02:31:01;4.30;99.90
17797;DHT22;55596;53.554;9.916;2022-11-15T02:33:35;4.20;99.90
17797;DHT22;55596;53.554;9.916;2022-11-15T02:36:10;4.30;99.90
17797;DHT22;55596;53.554;9.916;2022-11-15T02:38:43;4.20;99.90
17797;DHT22;55596;53.554;9.916;2022-11-15T02:41:16;4.20;99.90
17797;DHT22;55596;53.554;9.916;2022-11-15T02:43:48;4.10;99.90
17797;DHT22;55596;53.554;9.916;2022-11-15T02:46:28;3.80;99.90
17797;DHT22;55596;53.554;9.916;2022-11-15T02:49:16;4.50;99.90
17797;DHT22;55596;53.554;9.916;2022-11-15T02:51:45;4.10;99.90
17797;DHT22;55596;53.554;9.916;2022-11-15T02:54:17;4.20;99.90
17797;DHT22;55596;53.554;9.916;2022-11-15T02:56:46;4.00;99.90
17797;DHT22;55596;53.554;9.916;2022-11-15T03:02:21;4.00;99.90
17797;DHT22;55596;53.554;9.916;2022-11-15T03:04:54;4.10;99.90
17797;DHT22;55596;53.554;9.916;2022-11-15T03:07:28;4.20;99.90
17797;DHT22;55596;53.554;9.916;2022-11-15T03:10:01;4.20;99.90
17797;DHT22;55596;53.554;9.916;2022-11-15T03:12:34;4.10;99.90
17797;DHT22;55596;53.554;9.916;2022-11-15T03:15:08;3.90;99.90
17797;DHT22;55596;53.554;9.916;2022-11-15T03:17:42;4.10;99.90
17797;DHT22;55596;53.554;9.916;2022-11-15T03:20:10;4.00;99.90
17797;DHT22;55596;53.554;9.916;2022-11-15T03:22:43;4.20;99.90
17797;DHT22;55596;53.554;9.916;2022-11-15T03:25:14;4.20;99.90
17797;DHT22;55596;53.554;9.916;2022-11-15T03:27:44;4.40;99.90
17797;DHT22;55596;53.554;9.916;2022-11-15T03:30:13;3.90;99.90
17797;DHT22;55596;53.554;9.916;2022-11-15T03:32:44;4.50;99.90
17797;DHT22;55596;53.554;9.916;2022-11-15T03:35:15;4.40;99.90
17797;DHT22;55596;53.554;9.916;2022-11-15T03:37:47;4.30;99.90
17797;DHT22;55596;53.554;9.916;2022-11-15T03:40:16;4.50;99.90
17797;DHT22;55596;53.554;9.916;2022-11-15T03:42:48;4.40;99.90
17797;DHT22;55596;53.554;9.916;2022-11-15T03:45:24;4.40;99.90
17797;DHT22;55596;53.554;9.916;2022-11-15T03:47:59;4.20;99.90
17797;DHT22;55596;53.554;9.916;2022-11-15T03:50:28;4.30;99.90
17797;DHT22;55596;53.554;9.916;2022-11-15T03:52:56;4.60;99.90
17797;DHT22;55596;53.554;9.916;2022-11-15T03:55:24;4.40;99.90
17797;DHT22;55596;53.554;9.916;2022-11-15T03:57:54;4.50;99.90
17797;DHT22;55596;53.554;9.916;2022-11-15T04:00:22;4.40;99.90
17797;DHT22;55596;53.554;9.916;2022-11-15T04:02:49;4.40;99.90
17797;DHT22;55596;53.554;9.916;2022-11-15T04:05:17;4.50;99.90
17797;DHT22;55596;53.554;9.916;2022-11-15T04:07:44;4.70;99.90
17797;DHT22;55596;53.554;9.916;2022-11-15T04:10:13;4.70;99.90
17797;DHT22;55596;53.554;9.916;2022-11-15T04:12:42;4.80;99.90
17797;DHT22;55596;53.554;9.916;2022-11-15T04:15:13;5.10;99.90
17797;DHT22;55596;53.554;9.916;2022-11-15T04:17:42;4.90;99.90
17797;DHT22;55596;53.554;9.916;2022-11-15T04:20:11;5.20;99.90
17797;DHT22;55596;53.554;9.916;2022-11-15T04:22:59;5.40;99.90
17797;DHT22;55596;53.554;9.916;2022-11-15T04:25:44;5.40;99.90
17797;DHT22;55596;53.554;9.916;2022-11-15T04:28:11;5.40;99.90
17797;DHT22;55596;53.554;9.916;2022-11-15T04:30:39;5.50;99.90
17797;DHT22;55596;53.554;9.916;2022-11-15T04:33:06;5.40;99.90
17797;DHT22;55596;53.554;9.916;2022-11-15T04:35:34;5.60;99.90
17797;DHT22;55596;53.554;9.916;2022-11-15T04:38:04;5.60;99.90
17797;DHT22;55596;53.554;9.916;2022-11-15T04:40:31;5.70;99.90
17797;DHT22;55596;53.554;9.916;2022-11-15T04:42:58;5.80;99.90
17797;DHT22;55596;53.554;9.916;2022-11-15T04:45:25;5.80;99.90
17797;DHT22;55596;53.554;9.916;2022-11-15T04:47:52;5.90;99.90
17797;DHT22;55596;53.554;9.916;2022-11-15T04:50:19;6.00;99.90
17797;DHT22;55596;53.554;9.916;2022-11-15T04:52:51;5.80;99.90
17797;DHT22;55596;53.554;9.916;2022-11-15T04:55:20;6.10;99.90
17797;DHT22;55596;53.554;9.916;2022-11-15T04:57:47;5.90;99.90
17797;DHT22;55596;53.554;9.916;2022-11-15T05:00:16;5.90;99.90
17797;DHT22;55596;53.554;9.916;2022-11-15T05:02:43;6.10;99.90
17797;DHT22;55596;53.554;9.916;2022-11-15T05:05:27;6.20;99.90
17797;DHT22;55596;53.554;9.916;2022-11-15T05:10:23;5.90;99.90
17797;DHT22;55596;53.554;9.916;2022-11-15T05:12:50;6.20;99.90
17797;DHT22;55596;53.554;9.916;2022-11-15T05:15:17;6.30;99.90
17797;DHT22;55596;53.554;9.916;2022-11-15T05:17:43;6.50;99.90
17797;DHT22;55596;53.554;9.916;2022-11-15T05:20:11;5.90;99.90
17797;DHT22;55596;53.554;9.916;2022-11-15T05:22:38;6.20;99.90
17797;DHT22;55596;53.554;9.916;2022-11-15T05:25:06;6.20;99.90
17797;DHT22;55596;53.554;9.916;2022-11-15T05:27:35;6.20;99.90
17797;DHT22;55596;53.554;9.916;2022-11-15T05:30:02;6.30;99.90
17797;DHT22;55596;53.554;9.916;2022-11-15T05:32:29;6.30;99.90
17797;DHT22;55596;53.554;9.916;2022-11-15T05:34:55;6.50;99.90
17797;DHT22;55596;53.554;9.916;2022-11-15T05:37:23;6.30;99.90
17797;DHT22;55596;53.554;9.916;2022-11-15T05:39:49;6.70;99.90
17797;DHT22;55596;53.554;9.916;2022-11-15T05:42:17;6.40;99.90
17797;DHT22;55596;53.554;9.916;2022-11-15T05:44:47;6.50;99.90
17797;DHT22;55596;53.554;9.916;2022-11-15T05:47:17;6.40;99.90
17797;DHT22;55596;53.554;9.916;2022-11-15T05:49:45;6.40;99.90
17797;DHT22;55596;53.554;9.916;2022-11-15T05:52:15;6.50;99.90
17797;DHT22;55596;53.554;9.916;2022-11-15T05:54:43;6.50;99.90
17797;DHT22;55596;53.554;9.916;2022-11-15T05:57:10;6.50;99.90
17797;DHT22;55596;53.554;9.916;2022-11-15T05:59:38;6.70;99.90
17797;DHT22;55596;53.554;9.916;2022-11-15T06:02:07;6.80;99.90
17797;DHT22;55596;53.554;9.916;2022-11-15T06:04:34;6.50;99.90
17797;DHT22;55596;53.554;9.916;2022-11-15T06:07:01;6.70;99.90
17797;DHT22;55596;53.554;9.916;2022-11-15T06:09:28;6.70;99.90
17797;DHT22;55596;53.554;9.916;2022-11-15T06:14:22;6.80;99.90
17797;DHT22;55596;53.554;9.916;2022-11-15T06:16:49;6.70;99.90
17797;DHT22;55596;53.554;9.916;2022-11-15T06:19:17;6.60;99.90
17797;DHT22;55596;53.554;9.916;2022-11-15T06:21:44;6.80;99.90
17797;DHT22;55596;53.554;9.916;2022-11-15T06:24:11;6.80;99.90
17797;DHT22;55596;53.554;9.916;2022-11-15T06:26:38;6.80;99.90
17797;DHT22;55596;53.554;9.916;2022-11-15T06:29:05;7.00;99.90
17797;DHT22;55596;53.554;9.916;2022-11-15T06:31:33;6.80;99.90
17797;DHT22;55596;53.554;9.916;2022-11-15T06:34:04;6.80;99.90
17797;DHT22;55596;53.554;9.916;2022-11-15T06:36:34;6.70;99.90
17797;DHT22;55596;53.554;9.916;2022-11-15T06:39:01;6.90;99.90
17797;DHT22;55596;53.554;9.916;2022-11-15T06:41:28;6.80;99.90
17797;DHT22;55596;53.554;9.916;2022-11-15T06:43:58;7.10;99.90
17797;DHT22;55596;53.554;9.916;2022-11-15T06:46:26;6.70;99.90
17797;DHT22;55596;53.554;9.916;2022-11-15T06:48:53;7.20;99.90
17797;DHT22;55596;53.554;9.916;2022-11-15T06:51:22;6.80;99.90
17797;DHT22;55596;53.554;9.916;2022-11-15T06:53:50;7.10;99.90
17797;DHT22;55596;53.554;9.916;2022-11-15T06:56:17;6.50;99.90
17797;DHT22;55596;53.554;9.916;2022-11-15T06:58:44;7.00;99.90
17797;DHT22;55596;53.554;9.916;2022-11-15T07:01:12;7.20;99.90
17797;DHT22;55596;53.554;9.916;2022-11-15T07:03:40;6.80;99.90
17797;DHT22;55596;53.554;9.916;2022-11-15T07:06:08;7.60;99.90
17797;DHT22;55596;53.554;9.916;2022-11-15T07:08:36;6.70;99.90
17797;DHT22;55596;53.554;9.916;2022-11-15T07:11:06;6.70;99.90
17797;DHT22;55596;53.554;9.916;2022-11-15T07:13:34;7.20;99.90
17797;DHT22;55596;53.554;9.916;2022-11-15T07:16:03;7.10;99.90
17797;DHT22;55596;53.554;9.916;2022-11-15T07:18:30;7.10;99.90
17797;DHT22;55596;53.554;9.916;2022-11-15T07:21:01;7.40;99.90
17797;DHT22;55596;53.554;9.916;2022-11-15T07:23:28;6.80;99.90
17797;DHT22;55596;53.554;9.916;2022-11-15T07:25:57;6.90;99.90
17797;DHT22;55596;53.554;9.916;2022-11-15T07:28:29;7.00;99.90
17797;DHT22;55596;53.554;9.916;2022-11-15T07:31:02;7.10;99.90
17797;DHT22;55596;53.554;9.916;2022-11-15T07:33:33;7.20;99.90
17797;DHT22;55596;53.554;9.916;2022-11-15T07:36:03;7.10;99.90
17797;DHT22;55596;53.554;9.916;2022-11-15T07:38:30;6.40;99.90
17797;DHT22;55596;53.554;9.916;2022-11-15T07:40:59;7.20;99.90
17797;DHT22;55596;53.554;9.916;2022-11-15T07:43:28;7.40;99.90
17797;DHT22;55596;53.554;9.916;2022-11-15T07:45:55;7.40;99.90
17797;DHT22;55596;53.554;9.916;2022-11-15T07:50:49;7.50;99.90
17797;DHT22;55596;53.554;9.916;2022-11-15T07:53:16;7.70;99.90
17797;DHT22;55596;53.554;9.916;2022-11-15T07:55:43;7.70;99.90
17797;DHT22;55596;53.554;9.916;2022-11-15T07:58:11;7.60;99.90
17797;DHT22;55596;53.554;9.916;2022-11-15T08:00:39;7.50;99.90
17797;DHT22;55596;53.554;9.916;2022-11-15T08:03:10;7.50;99.90
17797;DHT22;55596;53.554;9.916;2022-11-15T08:05:38;7.80;99.90
17797;DHT22;55596;53.554;9.916;2022-11-15T08:08:06;7.70;99.90
17797;DHT22;55596;53.554;9.916;2022-11-15T08:10:34;7.50;99.90
17797;DHT22;55596;53.554;9.916;2022-11-15T08:13:03;8.00;99.90
17797;DHT22;55596;53.554;9.916;2022-11-15T08:15:31;7.60;99.90
17797;DHT22;55596;53.554;9.916;2022-11-15T08:18:02;8.00;99.90
17797;DHT22;55596;53.554;9.916;2022-11-15T08:20:30;7.70;99.90
17797;DHT22;55596;53.554;9.916;2022-11-15T08:22:57;7.80;99.90
17797;DHT22;55596;53.554;9.916;2022-11-15T08:25:24;8.10;99.90
17797;DHT22;55596;53.554;9.916;2022-11-15T08:27:53;7.70;99.90
17797;DHT22;55596;53.554;9.916;2022-11-15T08:30:20;8.30;99.90
17797;DHT22;55596;53.554;9.916;2022-11-15T08:32:47;7.80;99.90
17797;DHT22;55596;53.554;9.916;2022-11-15T08:35:16;7.70;99.90
17797;DHT22;55596;53.554;9.916;2022-11-15T08:37:43;8.00;99.90
17797;DHT22;55596;53.554;9.916;2022-11-15T08:40:11;8.10;99.90
17797;DHT22;55596;53.554;9.916;2022-11-15T08:42:39;8.10;99.90
17797;DHT22;55596;53.554;9.916;2022-11-15T08:45:07;7.80;99.90
17797;DHT22;55596;53.554;9.916;2022-11-15T08:47:34;8.60;99.90
17797;DHT22;55596;53.554;9.916;2022-11-15T08:50:02;8.80;99.90
17797;DHT22;55596;53.554;9.916;2022-11-15T08:52:30;8.50;99.90
17797;DHT22;55596;53.554;9.916;2022-11-15T08:54:57;8.90;99.90
17797;DHT22;55596;53.554;9.916;2022-11-15T08:57:24;8.70;99.90
17797;DHT22;55596;53.554;9.916;2022-11-15T08:59:51;8.40;99.90
17797;DHT22;55596;53.554;9.916;2022-11-15T09:02:18;8.50;99.90
17797;DHT22;55596;53.554;9.916;2022-11-15T09:04:45;8.40;99.90
17797;DHT22;55596;53.554;9.916;2022-11-15T09:07:12;8.60;99.90
17797;DHT22;55596;53.554;9.916;2022-11-15T09:09:41;8.60;99.90
17797;DHT22;55596;53.554;9.916;2022-11-15T09:12:08;8.70;99.90
17797;DHT22;55596;53.554;9.916;2022-11-15T09:14:35;8.80;99.90
17797;DHT22;55596;53.554;9.916;2022-11-15T09:17:02;9.10;99.90
17797;DHT22;55596;53.554;9.916;2022-11-15T09:19:29;9.20;99.90
17797;DHT22;55596;53.554;9.916;2022-11-15T09:21:56;9.20;99.90
17797;DHT22;55596;53.554;9.916;2022-11-15T09:24:23;8.80;99.90
17797;DHT22;55596;53.554;9.916;2022-11-15T09:26:52;9.20;99.90
17797;DHT22;55596;53.554;9.916;2022-11-15T09:29:18;9.60;99.90
17797;DHT22;55596;53.554;9.916;2022-11-15T09:31:45;9.80;99.90
17797;DHT22;55596;53.554;9.916;2022-11-15T09:34:12;9.90;99.90
17797;DHT22;55596;53.554;9.916;2022-11-15T09:36:39;10.20;99.90
17797;DHT22;55596;53.554;9.916;2022-11-15T09:39:06;10.20;99.90
17797;DHT22;55596;53.554;9.916;2022-11-15T09:41:58;10.40;99.90
17797;DHT22;55596;53.554;9.916;2022-11-15T09:45:12;10.70;99.90
17797;DHT22;55596;53.554;9.916;2022-11-15T09:47:55;10.50;99.90
17797;DHT22;55596;53.554;9.916;2022-11-15T09:50:32;10.90;99.90
17797;DHT22;55596;53.554;9.916;2022-11-15T09:53:00;11.00;99.90
17797;DHT22;55596;53.554;9.916;2022-11-15T09:55:43;10.60;99.90
17797;DHT22;55596;53.554;9.916;2022-11-15T09:58:20;10.80;99.90
17797;DHT22;55596;53.554;9.916;2022-11-15T10:00:51;10.60;99.90
17797;DHT22;55596;53.554;9.916;2022-11-15T10:03:25;10.20;99.90
17797;DHT22;55596;53.554;9.916;2022-11-15T10:05:55;10.20;99.90
17797;DHT22;55596;53.554;9.916;2022-11-15T10:11:11;10.50;99.90
17797;DHT22;55596;53.554;9.916;2022-11-15T10:13:42;10.30;99.90
17797;DHT22;55596;53.554;9.916;2022-11-15T10:16:21;10.50;99.90
17797;DHT22;55596;53.554;9.916;2022-11-15T10:18:56;10.90;99.90
17797;DHT22;55596;53.554;9.916;2022-11-15T10:21:32;10.40;99.90
17797;DHT22;55596;53.554;9.916;2022-11-15T10:24:05;10.70;99.90
17797;DHT22;55596;53.554;9.916;2022-11-15T10:26:34;10.80;99.90
17797;DHT22;55596;53.554;9.916;2022-11-15T10:29:02;10.90;99.90
17797;DHT22;55596;53.554;9.916;2022-11-15T10:31:29;10.60;99.90
17797;DHT22;55596;53.554;9.916;2022-11-15T10:34:09;11.00;99.90
17797;DHT22;55596;53.554;9.916;2022-11-15T10:36:38;10.70;99.90
17797;DHT22;55596;53.554;9.916;2022-11-15T10:39:05;10.60;99.90
17797;DHT22;55596;53.554;9.916;2022-11-15T10:41:36;10.50;99.90
17797;DHT22;55596;53.554;9.916;2022-11-15T10:44:21;10.60;99.90
17797;DHT22;55596;53.554;9.916;2022-11-15T10:49:55;10.10;99.90
17797;DHT22;55596;53.554;9.916;2022-11-15T10:52:23;10.10;99.90
17797;DHT22;55596;53.554;9.916;2022-11-15T10:54:53;10.50;99.90
17797;DHT22;55596;53.554;9.916;2022-11-15T10:57:23;10.90;99.90
17797;DHT22;55596;53.554;9.916;2022-11-15T10:59:55;10.70;99.90
17797;DHT22;55596;53.554;9.916;2022-11-15T11:02:32;10.90;99.90
17797;DHT22;55596;53.554;9.916;2022-11-15T11:05:00;10.90;99.90
17797;DHT22;55596;53.554;9.916;2022-11-15T11:07:29;11.00;99.90
17797;DHT22;55596;53.554;9.916;2022-11-15T11:10:01;11.60;99.90
17797;DHT22;55596;53.554;9.916;2022-11-15T11:12:30;11.60;99.90
17797;DHT22;55596;53.554;9.916;2022-11-15T11:15:05;11.30;99.90
17797;DHT22;55596;53.554;9.916;2022-11-15T11:17:47;11.30;99.90
17797;DHT22;55596;53.554;9.916;2022-11-15T11:20:22;11.20;99.90
17797;DHT22;55596;53.554;9.916;2022-11-15T11:23:03;11.30;99.90
17797;DHT22;55596;53.554;9.916;2022-11-15T11:25:36;11.70;99.90
17797;DHT22;55596;53.554;9.916;2022-11-15T11:28:18;11.10;99.90
17797;DHT22;55596;53.554;9.916;2022-11-15T11:31:00;11.50;99.90
17797;DHT22;55596;53.554;9.916;2022-11-15T11:33:33;11.30;99.90
17797;DHT22;55596;53.554;9.916;2022-11-15T11:36:16;11.60;99.90
17797;DHT22;55596;53.554;9.916;2022-11-15T11:38:51;11.80;99.90
17797;DHT22;55596;53.554;9.916;2022-11-15T11:41:39;11.30;99.90
17797;DHT22;55596;53.554;9.916;2022-11-15T11:44:18;12.00;99.90
17797;DHT22;55596;53.554;9.916;2022-11-15T11:46:55;12.00;99.90
17797;DHT22;55596;53.554;9.916;2022-11-15T11:49:27;11.80;99.90
17797;DHT22;55596;53.554;9.916;2022-11-15T11:51:59;11.90;99.90
17797;DHT22;55596;53.554;9.916;2022-11-15T11:54:32;12.20;99.90
17797;DHT22;55596;53.554;9.916;2022-11-15T11:57:04;11.80;99.90
17797;DHT22;55596;53.554;9.916;2022-11-15T11:59:37;11.70;99.90
17797;DHT22;55596;53.554;9.916;2022-11-15T12:02:24;12.10;99.90
17797;DHT22;55596;53.554;9.916;2022-11-15T12:05:01;12.20;99.90
17797;DHT22;55596;53.554;9.916;2022-11-15T12:07:32;11.80;99.90
17797;DHT22;55596;53.554;9.916;2022-11-15T12:10:04;12.50;99.90
17797;DHT22;55596;53.554;9.916;2022-11-15T12:12:36;13.00;99.90
17797;DHT22;55596;53.554;9.916;2022-11-15T12:15:12;13.50;99.90
17797;DHT22;55596;53.554;9.916;2022-11-15T12:17:42;13.70;99.90
17797;DHT22;55596;53.554;9.916;2022-11-15T12:20:15;13.30;99.90
17797;DHT22;55596;53.554;9.916;2022-11-15T12:22:46;13.60;99.90
17797;DHT22;55596;53.554;9.916;2022-11-15T12:25:18;13.70;99.90
17797;DHT22;55596;53.554;9.916;2022-11-15T12:27:50;13.60;99.90
17797;DHT22;55596;53.554;9.916;2022-11-15T12:30:19;13.90;99.90
17797;DHT22;55596;53.554;9.916;2022-11-15T12:32:54;14.20;99.90
17797;DHT22;55596;53.554;9.916;2022-11-15T12:35:27;14.20;99.90
17797;DHT22;55596;53.554;9.916;2022-11-15T12:37:55;14.10;99.90
17797;DHT22;55596;53.554;9.916;2022-11-15T12:40:33;14.10;99.90
17797;DHT22;55596;53.554;9.916;2022-11-15T12:46:12;14.60;99.90
17797;DHT22;55596;53.554;9.916;2022-11-15T12:49:00;14.30;99.90
17797;DHT22;55596;53.554;9.916;2022-11-15T12:52:05;14.80;99.90
17797;DHT22;55596;53.554;9.916;2022-11-15T12:55:00;14.30;99.90
17797;DHT22;55596;53.554;9.916;2022-11-15T12:57:37;14.30;99.90
17797;DHT22;55596;53.554;9.916;2022-11-15T13:03:32;14.30;99.90
17797;DHT22;55596;53.554;9.916;2022-11-15T13:06:10;14.30;99.90
17797;DHT22;55596;53.554;9.916;2022-11-15T13:08:58;14.00;99.90
17797;DHT22;55596;53.554;9.916;2022-11-15T13:11:48;14.10;99.90
17797;DHT22;55596;53.554;9.916;2022-11-15T13:14:41;14.40;99.90
17797;DHT22;55596;53.554;9.916;2022-11-15T13:17:26;14.60;99.90
17797;DHT22;55596;53.554;9.916;2022-11-15T13:19:59;14.80;99.90
17797;DHT22;55596;53.554;9.916;2022-11-15T13:22:27;14.80;99.90
17797;DHT22;55596;53.554;9.916;2022-11-15T13:28:18;14.90;99.90
17797;DHT22;55596;53.554;9.916;2022-11-15T13:30:51;14.90;99.90
17797;DHT22;55596;53.554;9.916;2022-11-15T13:33:20;14.90;99.90
17797;DHT22;55596;53.554;9.916;2022-11-15T13:35:51;14.40;99.90
17797;DHT22;55596;53.554;9.916;2022-11-15T13:38:26;14.90;99.90
17797;DHT22;55596;53.554;9.916;2022-11-15T13:40:55;14.70;99.90
17797;DHT22;55596;53.554;9.916;2022-11-15T13:43:34;15.30;99.90
17797;DHT22;55596;53.554;9.916;2022-11-15T13:46:13;15.60;99.90
17797;DHT22;55596;53.554;9.916;2022-11-15T13:48:43;16.10;99.90
17797;DHT22;55596;53.554;9.916;2022-11-15T13:51:15;16.60;99.90
17797;DHT22;55596;53.554;9.916;2022-11-15T13:53:47;16.60;99.90
17797;DHT22;55596;53.554;9.916;2022-11-15T13:56:17;17.00;99.90
17797;DHT22;55596;53.554;9.916;2022-11-15T13:58:44;17.80;99.90
17797;DHT22;55596;53.554;9.916;2022-11-15T14:01:16;18.20;99.90
17797;DHT22;55596;53.554;9.916;2022-11-15T14:03:52;18.30;99.90
17797;DHT22;55596;53.554;9.916;2022-11-15T14:06:21;18.40;99.90
17797;DHT22;55596;53.554;9.916;2022-11-15T14:09:01;18.50;99.90
17797;DHT22;55596;53.554;9.916;2022-11-15T14:11:30;19.30;99.90
17797;DHT22;55596;53.554;9.916;2022-11-15T14:14:14;19.40;99.90
17797;DHT22;55596;53.554;9.916;2022-11-15T14:16:43;19.60;99.90
17797;DHT22;55596;53.554;9.916;2022-11-15T14:19:12;19.20;99.90
17797;DHT22;55596;53.554;9.916;2022-11-15T14:22:07;19.10;99.90
17797;DHT22;55596;53.554;9.916;2022-11-15T14:24:34;18.00;99.90
17797;DHT22;55596;53.554;9.916;2022-11-15T14:27:19;17.20;99.90
17797;DHT22;55596;53.554;9.916;2022-11-15T14:29:47;16.80;99.90
17797;DHT22;55596;53.554;9.916;2022-11-15T14:32:16;16.30;99.90
17797;DHT22;55596;53.554;9.916;2022-11-15T14:34:45;15.80;99.90
17797;DHT22;55596;53.554;9.916;2022-11-15T14:37:23;15.70;99.90
17797;DHT22;55596;53.554;9.916;2022-11-15T14:39:51;14.50;99.90
17797;DHT22;55596;53.554;9.916;2022-11-15T14:42:21;14.50;99.90
17797;DHT22;55596;53.554;9.916;2022-11-15T14:44:49;13.90;99.90
17797;DHT22;55596;53.554;9.916;2022-11-15T14:47:16;14.10;99.90
17797;DHT22;55596;53.554;9.916;2022-11-15T14:49:45;13.50;99.90
17797;DHT22;55596;53.554;9.916;2022-11-15T14:52:24;13.10;99.90
17797;DHT22;55596;53.554;9.916;2022-11-15T14:54:53;12.40;99.90
17797;DHT22;55596;53.554;9.916;2022-11-15T14:57:22;12.80;99.90
17797;DHT22;55596;53.554;9.916;2022-11-15T14:59:49;12.50;99.90
17797;DHT22;55596;53.554;9.916;2022-11-15T15:02:18;12.30;99.90
17797;DHT22;55596;53.554;9.916;2022-11-15T15:04:46;12.20;99.90
17797;DHT22;55596;53.554;9.916;2022-11-15T15:07:14;12.20;99.90
17797;DHT22;55596;53.554;9.916;2022-11-15T15:09:41;12.00;99.90
17797;DHT22;55596;53.554;9.916;2022-11-15T15:12:15;11.80;99.90
17797;DHT22;55596;53.554;9.916;2022-11-15T15:14:45;11.70;99.90
17797;DHT22;55596;53.554;9.916;2022-11-15T15:17:13;11.70;99.90
17797;DHT22;55596;53.554;9.916;2022-11-15T15:19:40;11.20;99.90
17797;DHT22;55596;53.554;9.916;2022-11-15T15:22:14;11.40;99.90
17797;DHT22;55596;53.554;9.916;2022-11-15T15:24:41;10.90;99.90
17797;DHT22;55596;53.554;9.916;2022-11-15T15:27:08;11.00;99.90
17797;DHT22;55596;53.554;9.916;2022-11-15T15:29:35;10.80;99.90
17797;DHT22;55596;53.554;9.916;2022-11-15T15:32:04;10.50;99.90
17797;DHT22;55596;53.554;9.916;2022-11-15T15:37:18;10.60;99.90
17797;DHT22;55596;53.554;9.916;2022-11-15T15:42:16;10.20;99.90
17797;DHT22;55596;53.554;9.916;2022-11-15T15:44:43;10.10;99.90
17797;DHT22;55596;53.554;9.916;2022-11-15T15:47:14;9.90;99.90
17797;DHT22;55596;53.554;9.916;2022-11-15T15:52:09;10.00;99.90
17797;DHT22;55596;53.554;9.916;2022-11-15T15:54:37;9.70;99.90
17797;DHT22;55596;53.554;9.916;2022-11-15T15:57:04;10.00;99.90
17797;DHT22;55596;53.554;9.916;2022-11-15T16:01:59;10.00;99.90
17797;DHT22;55596;53.554;9.916;2022-11-15T16:04:27;10.10;99.90
17797;DHT22;55596;53.554;9.916;2022-11-15T16:06:58;9.80;99.90
17797;DHT22;55596;53.554;9.916;2022-11-15T16:12:07;9.30;99.90
17797;DHT22;55596;53.554;9.916;2022-11-15T16:14:34;9.60;99.90
17797;DHT22;55596;53.554;9.916;2022-11-15T16:17:01;9.50;99.90
17797;DHT22;55596;53.554;9.916;2022-11-15T16:19:29;9.80;99.90
17797;DHT22;55596;53.554;9.916;2022-11-15T16:21:56;9.90;99.90
17797;DHT22;55596;53.554;9.916;2022-11-15T16:26:54;10.50;99.90
17797;DHT22;55596;53.554;9.916;2022-11-15T16:29:22;9.80;99.90
17797;DHT22;55596;53.554;9.916;2022-11-15T16:31:48;10.10;99.90
17797;DHT22;55596;53.554;9.916;2022-11-15T16:36:45;10.30;99.90
17797;DHT22;55596;53.554;9.916;2022-11-15T16:39:13;10.30;99.90
17797;DHT22;55596;53.554;9.916;2022-11-15T16:41:42;10.20;99.90
17797;DHT22;55596;53.554;9.916;2022-11-15T16:44:12;10.30;99.90
17797;DHT22;55596;53.554;9.916;2022-11-15T16:46:41;10.20;99.90
17797;DHT22;55596;53.554;9.916;2022-11-15T16:49:12;9.90;99.90
17797;DHT22;55596;53.554;9.916;2022-11-15T16:51:40;9.90;99.90